Time;durP1;ratioP1;P1;durP2;ratioP2;P2;SDS_P1;SDS_P2;PMS_P1;PMS_P2;Temp;Humidity;BMP_temperature;BMP_pressure;BME280_temperature;BME280_humidity;BME280_pressure;Samples;Min_cycle;Max_cycle;Signal;HPM_P1;HPM_P2
2023/11/16 00:01:20;;;;;;;;;;;15.60;89.20;;;;;;4029434;29;19947;-53
2023/11/16 00:04:02;;;;;;;;;;;15.70;89.10;;;;;;4029601;29;20045;-56
2023/11/16 00:06:43;;;;;;;;;;;15.70;88.90;;;;;;4028418;29;20415;-55
2023/11/16 00:09:23;;;;;;;;;;;15.70;88.90;;;;;;4021061;29;19935;-57
2023/11/16 00:12:06;;;;;;;;;;;15.70;88.80;;;;;;4028778;29;19983;-55
2023/11/16 00:14:46;;;;;;;;;;;15.80;88.70;;;;;;4028968;29;19935;-54
2023/11/16 00:17:28;;;;;;;;;;;15.80;88.40;;;;;;4036811;29;19937;-55
2023/11/16 00:20:11;;;;;;;;;;;15.80;88.30;;;;;;4044727;29;20067;-53
2023/11/16 00:22:52;;;;;;;;;;;15.80;88.30;;;;;;4044519;29;19938;-56
2023/11/16 00:25:33;;;;;;;;;;;15.90;88.40;;;;;;4038484;29;20339;-55
2023/11/16 00:28:14;;;;;;;;;;;15.90;89.10;;;;;;4028489;29;20333;-57
2023/11/16 00:30:55;;;;;;;;;;;16.00;88.00;;;;;;4029047;29;19980;-56
2023/11/16 00:33:36;;;;;;;;;;;16.00;87.70;;;;;;4017249;29;19942;-54
2023/11/16 00:36:18;;;;;;;;;;;16.00;87.50;;;;;;4028342;29;19935;-53
2023/11/16 00:38:59;;;;;;;;;;;16.00;87.50;;;;;;4028350;29;20308;-56
2023/11/16 00:41:40;;;;;;;;;;;16.00;87.50;;;;;;4029548;29;19955;-56
2023/11/16 00:44:21;;;;;;;;;;;16.00;87.70;;;;;;4043762;29;19950;-55
2023/11/16 00:47:02;;;;;;;;;;;16.10;87.70;;;;;;4032062;29;19938;-56
2023/11/16 00:49:42;;;;;;;;;;;16.10;87.50;;;;;;4043562;29;19938;-58
2023/11/16 00:52:24;;;;;;;;;;;16.20;87.40;;;;;;4043545;29;20071;-57
2023/11/16 00:55:06;;;;;;;;;;;16.20;88.00;;;;;;4043816;29;19955;-56
2023/11/16 00:57:47;;;;;;;;;;;16.20;87.10;;;;;;4044130;29;19939;-55
2023/11/16 01:00:31;;;;;;;;;;;16.20;87.10;;;;;;4028003;29;19938;-56
2023/11/16 01:03:12;;;;;;;;;;;16.20;87.80;;;;;;4028400;29;19939;-57
2023/11/16 01:05:53;;;;;;;;;;;16.20;86.90;;;;;;4028473;29;19935;-53
2023/11/16 01:08:36;;;;;;;;;;;16.20;86.80;;;;;;4017077;29;19938;-57
2023/11/16 01:11:22;;;;;;;;;;;16.20;86.80;;;;;;4028555;29;19934;-53
2023/11/16 01:14:03;;;;;;;;;;;16.20;86.70;;;;;;4028515;29;20323;-57
2023/11/16 01:16:45;;;;;;;;;;;16.20;86.60;;;;;;4030137;29;20064;-56
2023/11/16 01:19:26;;;;;;;;;;;16.30;86.60;;;;;;4016852;29;19935;-57
2023/11/16 01:22:08;;;;;;;;;;;16.30;86.40;;;;;;4028096;29;19935;-56
2023/11/16 01:24:51;;;;;;;;;;;16.30;86.10;;;;;;4023315;29;19935;-53
2023/11/16 01:27:33;;;;;;;;;;;16.20;85.80;;;;;;4028176;29;20299;-56
2023/11/16 01:30:13;;;;;;;;;;;16.10;85.90;;;;;;4028257;29;20505;-56
2023/11/16 01:32:54;;;;;;;;;;;16.10;86.00;;;;;;4017717;29;19996;-55
2023/11/16 01:35:36;;;;;;;;;;;16.00;86.10;;;;;;4024478;29;19935;-56
2023/11/16 01:38:17;;;;;;;;;;;16.00;86.30;;;;;;4032824;29;19947;-54
2023/11/16 01:40:59;;;;;;;;;;;16.00;86.60;;;;;;4016127;29;20407;-55
2023/11/16 01:43:40;;;;;;;;;;;15.90;86.90;;;;;;4016482;29;19954;-56
2023/11/16 01:46:22;;;;;;;;;;;15.90;87.10;;;;;;4028079;29;19956;-56
2023/11/16 01:49:04;;;;;;;;;;;16.00;86.80;;;;;;4027355;29;20440;-56
2023/11/16 01:51:46;;;;;;;;;;;16.10;86.60;;;;;;4027591;29;19939;-57
2023/11/16 01:54:27;;;;;;;;;;;16.20;85.80;;;;;;4027793;29;20478;-56
2023/11/16 01:57:10;;;;;;;;;;;16.20;85.80;;;;;;4027086;29;19938;-56
2023/11/16 01:59:50;;;;;;;;;;;16.20;85.50;;;;;;4027825;29;19934;-56
2023/11/16 02:02:32;;;;;;;;;;;16.20;85.30;;;;;;4016800;29;20344;-55
2023/11/16 02:05:13;;;;;;;;;;;16.20;85.40;;;;;;4022857;29;19955;-54
2023/11/16 02:07:53;;;;;;;;;;;16.10;85.30;;;;;;4027757;29;20069;-56
2023/11/16 02:10:34;;;;;;;;;;;16.10;85.50;;;;;;4027706;29;19935;-56
2023/11/16 02:13:20;;;;;;;;;;;16.00;85.60;;;;;;4016975;29;20390;-52
2023/11/16 02:16:04;;;;;;;;;;;16.00;85.80;;;;;;4034849;29;20398;-55
2023/11/16 02:18:45;;;;;;;;;;;16.00;86.00;;;;;;4015976;29;20011;-55
2023/11/16 02:21:26;;;;;;;;;;;16.10;85.70;;;;;;4027681;29;20071;-55
2023/11/16 02:24:10;;;;;;;;;;;16.10;85.40;;;;;;4016052;29;20288;-56
2023/11/16 02:26:51;;;;;;;;;;;16.20;85.30;;;;;;4027226;29;20500;-52
2023/11/16 02:29:32;;;;;;;;;;;16.20;85.20;;;;;;4027189;29;19939;-53
2023/11/16 02:32:13;;;;;;;;;;;16.20;85.90;;;;;;4037540;29;19938;-52
2023/11/16 02:34:53;;;;;;;;;;;16.20;85.10;;;;;;4027601;29;19935;-55
2023/11/16 02:37:35;;;;;;;;;;;16.10;85.10;;;;;;4015999;29;19938;-58
2023/11/16 02:40:17;;;;;;;;;;;16.10;85.30;;;;;;4027520;29;19938;-58
2023/11/16 02:42:59;;;;;;;;;;;16.20;85.30;;;;;;4027406;29;20091;-59
2023/11/16 02:45:39;;;;;;;;;;;16.20;85.20;;;;;;4027894;29;20071;-58
2023/11/16 02:48:20;;;;;;;;;;;16.20;85.10;;;;;;4028278;29;20394;-58
2023/11/16 02:51:01;;;;;;;;;;;16.20;85.10;;;;;;4027184;29;19962;-58
2023/11/16 02:53:43;;;;;;;;;;;16.20;85.00;;;;;;4027504;29;19935;-58
2023/11/16 02:56:25;;;;;;;;;;;16.20;84.10;;;;;;4027463;29;20615;-58
2023/11/16 02:59:07;;;;;;;;;;;16.30;83.80;;;;;;4041689;29;19938;-58
2023/11/16 03:01:47;;;;;;;;;;;16.30;83.70;;;;;;4030724;29;20003;-58
2023/11/16 03:04:28;;;;;;;;;;;16.20;83.60;;;;;;4031071;29;19935;-58
2023/11/16 03:07:10;;;;;;;;;;;16.20;83.70;;;;;;4041880;29;19978;-58
2023/11/16 03:10:01;;;;;;;;;;;16.10;83.70;;;;;;4031137;29;19939;-58
2023/11/16 03:12:44;;;;;;;;;;;16.20;83.60;;;;;;4030910;29;20315;-59
2023/11/16 03:15:25;;;;;;;;;;;16.10;83.30;;;;;;4029464;29;19935;-58
2023/11/16 03:18:06;;;;;;;;;;;16.10;82.80;;;;;;4042448;29;19939;-58
2023/11/16 03:20:47;;;;;;;;;;;16.10;82.70;;;;;;4031282;29;19951;-59
2023/11/16 03:23:28;;;;;;;;;;;16.10;82.70;;;;;;4025139;29;19935;-58
2023/11/16 03:26:10;;;;;;;;;;;16.10;82.60;;;;;;4015110;29;20292;-57
2023/11/16 03:28:53;;;;;;;;;;;16.10;82.60;;;;;;4027216;29;20352;-58
2023/11/16 03:31:35;;;;;;;;;;;16.10;82.60;;;;;;4028561;29;19934;-57
2023/11/16 03:34:16;;;;;;;;;;;16.10;82.60;;;;;;4041802;29;19982;-57
2023/11/16 03:36:57;;;;;;;;;;;16.10;82.70;;;;;;4042000;29;19934;-58
2023/11/16 03:39:37;;;;;;;;;;;16.10;82.50;;;;;;4035803;29;20071;-58
2023/11/16 03:42:20;;;;;;;;;;;16.20;82.50;;;;;;4015022;29;19935;-57
2023/11/16 03:45:02;;;;;;;;;;;16.20;82.40;;;;;;4029289;29;19935;-58
2023/11/16 03:47:43;;;;;;;;;;;16.20;82.30;;;;;;4018551;29;20418;-58
2023/11/16 03:50:24;;;;;;;;;;;16.10;82.40;;;;;;4018308;29;19982;-57
2023/11/16 03:53:05;;;;;;;;;;;16.10;82.40;;;;;;4029643;29;19939;-56
2023/11/16 03:55:46;;;;;;;;;;;16.10;82.60;;;;;;4030196;29;20678;-59
2023/11/16 03:58:26;;;;;;;;;;;16.00;83.70;;;;;;4029373;29;19934;-57
2023/11/16 04:01:08;;;;;;;;;;;16.10;82.90;;;;;;4017642;29;19941;-58
2023/11/16 04:03:49;;;;;;;;;;;16.10;82.70;;;;;;4021435;29;20035;-58
2023/11/16 04:06:31;;;;;;;;;;;16.10;82.50;;;;;;4044177;29;19985;-57
2023/11/16 04:09:11;;;;;;;;;;;16.10;82.50;;;;;;4032219;29;20306;-57
2023/11/16 04:11:52;;;;;;;;;;;16.20;82.50;;;;;;4032903;29;20002;-58
2023/11/16 04:14:33;;;;;;;;;;;16.20;82.30;;;;;;4043108;29;19935;-57
2023/11/16 04:17:16;;;;;;;;;;;16.30;82.10;;;;;;4044332;29;20471;-58
2023/11/16 04:19:57;;;;;;;;;;;16.30;82.00;;;;;;4044498;29;19966;-58
2023/11/16 04:22:39;;;;;;;;;;;16.30;82.70;;;;;;4044259;29;19935;-58
2023/11/16 04:25:25;;;;;;;;;;;16.30;81.80;;;;;;4044330;29;19970;-58
2023/11/16 04:28:06;;;;;;;;;;;16.30;81.70;;;;;;4044620;29;20019;-58
2023/11/16 04:30:46;;;;;;;;;;;16.30;81.50;;;;;;4042124;29;19938;-58
2023/11/16 04:33:29;;;;;;;;;;;16.30;81.30;;;;;;4044078;29;19934;-58
2023/11/16 04:36:16;;;;;;;;;;;16.40;81.10;;;;;;4043932;29;19983;-58
2023/11/16 04:38:59;;;;;;;;;;;16.30;81.00;;;;;;4032707;29;24379;-58
2023/11/16 04:41:43;;;;;;;;;;;16.30;81.20;;;;;;4028750;29;19939;-59
2023/11/16 04:44:25;;;;;;;;;;;16.20;81.30;;;;;;4028274;29;19935;-59
2023/11/16 04:47:07;;;;;;;;;;;16.20;81.50;;;;;;4029150;29;19938;-58
2023/11/16 04:49:49;;;;;;;;;;;16.10;81.80;;;;;;4028160;29;19935;-57
2023/11/16 04:52:33;;;;;;;;;;;16.10;82.00;;;;;;4027620;29;19938;-58
2023/11/16 04:55:14;;;;;;;;;;;16.00;82.10;;;;;;4036918;29;20035;-57
2023/11/16 04:57:54;;;;;;;;;;;15.90;82.50;;;;;;4044159;29;20398;-57
2023/11/16 05:00:35;;;;;;;;;;;15.90;82.80;;;;;;4043529;29;20071;-58
2023/11/16 05:03:16;;;;;;;;;;;16.00;82.70;;;;;;4041204;29;19958;-57
2023/11/16 05:05:58;;;;;;;;;;;16.10;82.50;;;;;;4028088;29;19962;-58
2023/11/16 05:08:40;;;;;;;;;;;16.10;82.30;;;;;;4028443;29;20336;-59
2023/11/16 05:11:21;;;;;;;;;;;16.10;83.10;;;;;;4029525;29;20403;-58
2023/11/16 05:14:03;;;;;;;;;;;16.10;82.20;;;;;;4043625;29;20022;-59
2023/11/16 05:16:43;;;;;;;;;;;16.10;82.20;;;;;;4043874;29;19935;-59
2023/11/16 05:19:25;;;;;;;;;;;16.10;81.90;;;;;;4043644;29;20068;-58
2023/11/16 05:22:07;;;;;;;;;;;16.10;81.80;;;;;;4028224;29;19994;-58
2023/11/16 05:24:48;;;;;;;;;;;16.20;81.80;;;;;;4027486;29;20292;-58
2023/11/16 05:27:28;;;;;;;;;;;16.20;81.70;;;;;;4028744;29;20041;-58
2023/11/16 05:30:11;;;;;;;;;;;16.20;81.50;;;;;;4027525;29;19975;-58
2023/11/16 05:32:52;;;;;;;;;;;16.20;81.40;;;;;;4015907;29;19938;-58
2023/11/16 05:35:34;;;;;;;;;;;16.20;81.40;;;;;;4028032;29;20443;-59
2023/11/16 05:38:17;;;;;;;;;;;16.20;81.20;;;;;;4041896;29;19979;-58
2023/11/16 05:40:58;;;;;;;;;;;16.20;80.90;;;;;;4031321;29;19934;-59
2023/11/16 05:43:39;;;;;;;;;;;16.30;81.00;;;;;;4041295;29;20425;-58
2023/11/16 05:46:20;;;;;;;;;;;16.20;80.80;;;;;;4017568;29;19971;-58
2023/11/16 05:49:01;;;;;;;;;;;16.20;80.80;;;;;;4027689;29;19935;-57
2023/11/16 05:51:42;;;;;;;;;;;16.20;80.80;;;;;;4027948;29;19935;-58
2023/11/16 05:54:25;;;;;;;;;;;16.10;80.90;;;;;;4028472;29;19951;-58
2023/11/16 05:57:06;;;;;;;;;;;16.20;80.90;;;;;;4026469;29;19938;-58
2023/11/16 05:59:47;;;;;;;;;;;16.20;81.40;;;;;;4028326;29;19935;-58
2023/11/16 06:02:27;;;;;;;;;;;16.20;80.30;;;;;;4027370;29;19950;-58
2023/11/16 06:05:09;;;;;;;;;;;16.30;80.20;;;;;;4026005;29;19983;-58
2023/11/16 06:07:52;;;;;;;;;;;16.30;81.10;;;;;;4026456;29;20426;-58
2023/11/16 06:10:34;;;;;;;;;;;16.30;80.00;;;;;;4029248;29;19935;-58
2023/11/16 06:13:22;;;;;;;;;;;16.30;79.80;;;;;;4042973;29;19934;-56
2023/11/16 06:16:02;;;;;;;;;;;16.30;79.80;;;;;;4042825;29;20044;-58
2023/11/16 06:18:43;;;;;;;;;;;16.30;79.80;;;;;;4041513;29;20383;-56
2023/11/16 06:21:24;;;;;;;;;;;16.20;80.60;;;;;;4042769;29;19938;-58
2023/11/16 06:24:05;;;;;;;;;;;16.20;79.80;;;;;;4042638;29;19939;-57
2023/11/16 06:26:47;;;;;;;;;;;16.10;79.80;;;;;;4043075;29;19938;-58
2023/11/16 06:29:29;;;;;;;;;;;16.10;80.10;;;;;;4027197;29;19950;-58
2023/11/16 06:32:09;;;;;;;;;;;16.00;80.30;;;;;;4039633;29;19938;-51
2023/11/16 06:34:49;;;;;;;;;;;15.90;80.70;;;;;;3996554;29;19935;-52
2023/11/16 06:37:31;;;;;;;;;;;16.00;80.70;;;;;;4006604;29;19960;-55
2023/11/16 06:40:12;;;;;;;;;;;16.00;80.70;;;;;;3997377;29;19939;-51
2023/11/16 06:42:56;;;;;;;;;;;16.10;80.80;;;;;;3997168;29;20407;-51
2023/11/16 06:45:40;;;;;;;;;;;16.10;81.60;;;;;;3999488;29;19940;-51
2023/11/16 06:48:21;;;;;;;;;;;16.10;80.30;;;;;;4006946;29;19944;-50
2023/11/16 06:51:04;;;;;;;;;;;16.10;80.30;;;;;;3998082;29;20515;-51
2023/11/16 06:53:46;;;;;;;;;;;16.10;80.40;;;;;;4003303;29;19935;-54
2023/11/16 06:56:27;;;;;;;;;;;16.10;80.90;;;;;;4012341;29;19939;-56
2023/11/16 06:59:12;;;;;;;;;;;16.10;81.10;;;;;;3997203;29;19934;-51
2023/11/16 07:01:53;;;;;;;;;;;16.20;80.50;;;;;;3998073;29;19953;-53
2023/11/16 07:04:35;;;;;;;;;;;16.10;80.90;;;;;;3996347;29;19935;-53
2023/11/16 07:07:17;;;;;;;;;;;16.10;80.20;;;;;;4010360;29;20781;-51
2023/11/16 07:09:57;;;;;;;;;;;16.10;80.60;;;;;;4012561;29;19939;-50
2023/11/16 07:12:40;;;;;;;;;;;16.10;80.70;;;;;;4010983;29;19939;-51
2023/11/16 07:15:23;;;;;;;;;;;16.00;81.20;;;;;;3995589;29;19935;-51
2023/11/16 07:18:04;;;;;;;;;;;15.90;81.50;;;;;;3996297;29;19935;-56
2023/11/16 07:20:47;;;;;;;;;;;15.90;81.90;;;;;;3999967;29;19939;-54
2023/11/16 07:23:28;;;;;;;;;;;15.80;82.40;;;;;;3999572;29;19940;-55
2023/11/16 07:26:09;;;;;;;;;;;15.80;82.50;;;;;;4000291;29;20028;-54
2023/11/16 07:28:50;;;;;;;;;;;15.80;82.60;;;;;;4000823;29;19935;-50
2023/11/16 07:31:32;;;;;;;;;;;15.80;82.90;;;;;;4014339;29;19939;-50
2023/11/16 07:34:14;;;;;;;;;;;15.70;83.10;;;;;;4041166;29;19938;-53
2023/11/16 07:36:54;;;;;;;;;;;15.70;83.30;;;;;;4038639;29;20003;-50
2023/11/16 07:39:37;;;;;;;;;;;15.70;83.50;;;;;;4028215;29;19934;-56
2023/11/16 07:42:20;;;;;;;;;;;15.70;83.60;;;;;;4028938;29;19939;-56
2023/11/16 07:45:01;;;;;;;;;;;15.80;83.50;;;;;;4029556;29;19935;-56
2023/11/16 07:47:45;;;;;;;;;;;15.80;83.20;;;;;;4017736;29;20529;-56
2023/11/16 07:50:25;;;;;;;;;;;15.90;83.20;;;;;;4029137;29;19942;-57
2023/11/16 07:53:09;;;;;;;;;;;15.90;83.10;;;;;;4042854;29;20307;-56
2023/11/16 07:55:53;;;;;;;;;;;16.00;82.90;;;;;;4044050;29;19935;-54
2023/11/16 07:58:34;;;;;;;;;;;16.00;83.40;;;;;;4044644;29;19964;-56
2023/11/16 08:01:17;;;;;;;;;;;16.00;82.50;;;;;;4044333;29;20066;-56
2023/11/16 08:03:59;;;;;;;;;;;16.10;82.60;;;;;;4044556;29;20307;-57
2023/11/16 08:06:40;;;;;;;;;;;16.10;82.40;;;;;;4033415;29;20642;-56
2023/11/16 08:09:23;;;;;;;;;;;16.20;82.50;;;;;;4028718;29;20406;-56
2023/11/16 08:12:07;;;;;;;;;;;16.30;81.60;;;;;;4029350;29;19935;-55
2023/11/16 08:14:47;;;;;;;;;;;16.40;82.10;;;;;;4044654;29;20379;-56
2023/11/16 08:17:28;;;;;;;;;;;16.40;81.90;;;;;;4016813;29;20060;-56
2023/11/16 08:20:12;;;;;;;;;;;16.50;81.60;;;;;;4028819;29;20248;-55
2023/11/16 08:22:53;;;;;;;;;;;16.40;81.50;;;;;;4029790;29;20017;-57
2023/11/16 08:25:36;;;;;;;;;;;16.40;81.30;;;;;;4028890;29;19934;-56
2023/11/16 08:28:19;;;;;;;;;;;16.40;81.40;;;;;;4037448;29;20366;-55
2023/11/16 08:31:00;;;;;;;;;;;16.40;81.50;;;;;;4028187;29;20067;-56
2023/11/16 08:33:43;;;;;;;;;;;16.40;81.20;;;;;;4028565;29;20095;-56
2023/11/16 08:36:25;;;;;;;;;;;16.40;81.10;;;;;;4028811;29;20318;-57
2023/11/16 08:39:07;;;;;;;;;;;16.30;81.10;;;;;;4028378;29;19935;-56
2023/11/16 08:41:48;;;;;;;;;;;16.30;81.00;;;;;;4027807;29;19939;-55
2023/11/16 08:44:29;;;;;;;;;;;16.20;81.00;;;;;;4034283;29;19934;-55
2023/11/16 08:47:14;;;;;;;;;;;16.10;81.80;;;;;;4044031;29;20005;-56
2023/11/16 08:49:55;;;;;;;;;;;16.10;81.20;;;;;;4035020;29;19935;-56
2023/11/16 08:52:38;;;;;;;;;;;16.00;81.60;;;;;;4028367;29;19954;-51
2023/11/16 08:55:21;;;;;;;;;;;16.00;82.00;;;;;;4027802;29;20072;-51
2023/11/16 08:58:06;;;;;;;;;;;15.90;82.20;;;;;;4030103;29;19985;-51
2023/11/16 09:00:48;;;;;;;;;;;15.80;82.30;;;;;;4016283;29;19939;-53
2023/11/16 09:03:30;;;;;;;;;;;15.80;82.40;;;;;;4027763;29;19935;-54
2023/11/16 09:06:15;;;;;;;;;;;15.80;82.90;;;;;;4028019;29;20406;-55
2023/11/16 09:09:09;;;;;;;;;;;15.70;83.00;;;;;;4027339;29;19938;-52
2023/11/16 09:11:52;;;;;;;;;;;15.70;83.90;;;;;;4027870;29;19938;-56
2023/11/16 09:14:34;;;;;;;;;;;15.70;83.10;;;;;;4027787;29;19950;-56
2023/11/16 09:17:18;;;;;;;;;;;15.70;83.10;;;;;;4027466;29;19975;-57
2023/11/16 09:19:59;;;;;;;;;;;15.70;83.10;;;;;;4027643;29;19939;-57
2023/11/16 09:22:42;;;;;;;;;;;15.60;83.10;;;;;;4027261;29;19974;-56
2023/11/16 09:25:29;;;;;;;;;;;15.60;83.20;;;;;;4030460;29;19942;-57
2023/11/16 09:28:11;;;;;;;;;;;15.60;83.40;;;;;;4043435;29;19982;-55
2023/11/16 09:30:52;;;;;;;;;;;15.60;83.30;;;;;;4043277;29;19933;-57
2023/11/16 09:33:34;;;;;;;;;;;15.60;83.10;;;;;;4027314;29;20398;-55
2023/11/16 09:36:15;;;;;;;;;;;15.60;82.90;;;;;;4027790;29;19935;-57
2023/11/16 09:38:56;;;;;;;;;;;15.60;82.70;;;;;;4027219;29;20034;-57
2023/11/16 09:41:40;;;;;;;;;;;15.60;82.70;;;;;;4028796;29;20373;-57
2023/11/16 09:44:23;;;;;;;;;;;15.60;82.80;;;;;;4015954;29;19952;-56
2023/11/16 09:47:05;;;;;;;;;;;15.60;83.00;;;;;;4027205;29;19934;-54
2023/11/16 09:49:47;;;;;;;;;;;15.60;83.10;;;;;;4026991;29;20034;-55
2023/11/16 09:52:32;;;;;;;;;;;15.50;83.20;;;;;;4027361;29;19961;-55
2023/11/16 09:55:17;;;;;;;;;;;15.50;83.30;;;;;;4027720;29;20397;-55
2023/11/16 09:58:04;;;;;;;;;;;15.50;83.40;;;;;;4037913;29;20377;-55
2023/11/16 10:00:48;;;;;;;;;;;15.40;84.40;;;;;;4042592;29;19935;-56
2023/11/16 10:03:31;;;;;;;;;;;15.40;83.50;;;;;;4031549;29;20014;-57
2023/11/16 10:06:20;;;;;;;;;;;15.40;83.20;;;;;;4031952;29;19983;-52
2023/11/16 10:09:12;;;;;;;;;;;15.30;83.10;;;;;;4040197;29;19939;-56
2023/11/16 10:11:53;;;;;;;;;;;15.30;83.20;;;;;;4025854;29;20068;-53
2023/11/16 10:14:40;;;;;;;;;;;15.30;83.30;;;;;;4027517;29;19939;-55
2023/11/16 10:17:24;;;;;;;;;;;15.20;83.20;;;;;;4025620;29;19935;-56
2023/11/16 10:20:06;;;;;;;;;;;15.10;83.10;;;;;;4027364;29;19939;-55
2023/11/16 10:22:47;;;;;;;;;;;15.10;83.10;;;;;;4027125;29;19939;-54
2023/11/16 10:25:29;;;;;;;;;;;15.10;83.30;;;;;;4035850;29;19970;-53
2023/11/16 10:28:14;;;;;;;;;;;15.10;83.40;;;;;;4042674;29;19978;-51
2023/11/16 10:30:57;;;;;;;;;;;15.10;83.60;;;;;;4042746;29;19982;-56
2023/11/16 10:33:42;;;;;;;;;;;15.10;83.70;;;;;;4042151;29;19938;-54
2023/11/16 10:36:24;;;;;;;;;;;15.00;84.60;;;;;;4042564;29;20018;-49
2023/11/16 10:39:11;;;;;;;;;;;15.00;83.90;;;;;;4040930;29;19934;-50
2023/11/16 10:41:52;;;;;;;;;;;15.00;84.00;;;;;;4034882;29;20439;-50
2023/11/16 10:44:33;;;;;;;;;;;15.00;84.20;;;;;;4040096;29;19935;-51
2023/11/16 10:47:16;;;;;;;;;;;15.00;84.30;;;;;;4042648;29;19939;-50
2023/11/16 10:49:58;;;;;;;;;;;15.00;84.60;;;;;;4042177;29;19939;-49
2023/11/16 10:52:40;;;;;;;;;;;15.00;84.90;;;;;;4042481;29;20163;-48
2023/11/16 10:55:21;;;;;;;;;;;15.00;85.10;;;;;;4044825;29;19938;-46
2023/11/16 10:58:04;;;;;;;;;;;15.00;85.40;;;;;;4029298;29;19955;-47
2023/11/16 11:00:46;;;;;;;;;;;15.00;85.80;;;;;;4029830;29;20288;-47
2023/11/16 11:03:28;;;;;;;;;;;14.90;85.60;;;;;;4026738;29;19935;-47
2023/11/16 11:06:17;;;;;;;;;;;14.90;85.50;;;;;;4028678;29;19935;-48
2023/11/16 11:08:58;;;;;;;;;;;14.90;85.30;;;;;;4028092;29;19939;-47
2023/11/16 11:11:42;;;;;;;;;;;14.90;85.20;;;;;;4029396;29;20068;-49
2023/11/16 11:14:26;;;;;;;;;;;14.90;86.10;;;;;;4029427;29;19935;-48
2023/11/16 11:17:07;;;;;;;;;;;14.90;85.30;;;;;;4030886;29;19943;-48
2023/11/16 11:19:59;;;;;;;;;;;14.90;85.10;;;;;;4045252;29;19934;-50
2023/11/16 11:22:42;;;;;;;;;;;14.90;85.10;;;;;;4030323;29;19942;-47
2023/11/16 11:25:25;;;;;;;;;;;14.90;85.50;;;;;;4029933;29;19954;-50
2023/11/16 11:28:06;;;;;;;;;;;14.90;85.70;;;;;;4039133;29;19938;-48
2023/11/16 11:30:52;;;;;;;;;;;14.80;85.80;;;;;;4029921;29;19967;-50
2023/11/16 11:33:34;;;;;;;;;;;14.80;85.70;;;;;;4029073;29;20040;-55
2023/11/16 11:36:20;;;;;;;;;;;14.80;86.00;;;;;;4029257;29;19935;-56
2023/11/16 11:39:04;;;;;;;;;;;14.80;86.20;;;;;;4039667;29;20303;-55
2023/11/16 11:41:56;;;;;;;;;;;14.70;86.40;;;;;;4044452;29;19939;-56
2023/11/16 11:44:36;;;;;;;;;;;14.70;86.50;;;;;;4043813;29;20056;-53
2023/11/16 11:47:19;;;;;;;;;;;14.80;86.60;;;;;;4043555;29;19935;-55
2023/11/16 11:50:01;;;;;;;;;;;14.70;86.60;;;;;;4043953;29;19938;-55
2023/11/16 11:52:44;;;;;;;;;;;14.70;86.80;;;;;;4038767;29;19938;-55
2023/11/16 11:55:26;;;;;;;;;;;14.70;86.90;;;;;;4028557;29;20015;-53
2023/11/16 11:58:07;;;;;;;;;;;14.70;87.00;;;;;;4028495;29;19934;-56
2023/11/16 12:00:48;;;;;;;;;;;14.70;87.20;;;;;;4028539;29;19939;-56
2023/11/16 12:03:30;;;;;;;;;;;14.70;87.20;;;;;;4028356;29;20068;-55
2023/11/16 12:06:11;;;;;;;;;;;14.70;87.30;;;;;;4027437;29;19935;-55
2023/11/16 12:08:54;;;;;;;;;;;14.70;87.30;;;;;;4029238;29;19938;-55
2023/11/16 12:11:35;;;;;;;;;;;14.70;87.30;;;;;;4037236;29;19938;-54
2023/11/16 12:14:16;;;;;;;;;;;14.70;87.50;;;;;;4043691;29;20394;-54
2023/11/16 12:16:56;;;;;;;;;;;14.60;87.60;;;;;;4043765;29;20097;-53
2023/11/16 12:19:37;;;;;;;;;;;14.70;87.90;;;;;;4043937;29;19938;-56
2023/11/16 12:22:21;;;;;;;;;;;14.70;88.10;;;;;;4031612;29;19939;-54
2023/11/16 12:25:05;;;;;;;;;;;14.60;89.30;;;;;;4027506;29;20359;-48
2023/11/16 12:27:47;;;;;;;;;;;14.60;90.10;;;;;;4020705;29;20295;-51
2023/11/16 12:30:29;;;;;;;;;;;14.70;90.20;;;;;;4044033;29;19934;-56
2023/11/16 12:33:11;;;;;;;;;;;14.70;90.20;;;;;;4043598;29;20011;-54
2023/11/16 12:35:52;;;;;;;;;;;14.70;90.20;;;;;;4043685;29;19935;-54
2023/11/16 12:38:32;;;;;;;;;;;14.70;90.10;;;;;;4044493;29;20005;-54
2023/11/16 12:41:14;;;;;;;;;;;14.70;90.10;;;;;;4043822;29;19958;-52
2023/11/16 12:44:00;;;;;;;;;;;14.70;90.00;;;;;;4028648;29;19983;-54
2023/11/16 12:46:41;;;;;;;;;;;14.60;89.90;;;;;;4037830;29;19938;-54
2023/11/16 12:49:22;;;;;;;;;;;14.60;89.70;;;;;;4043012;29;20078;-54
2023/11/16 12:52:03;;;;;;;;;;;14.60;89.50;;;;;;4044012;29;20014;-55
2023/11/16 12:54:48;;;;;;;;;;;14.60;89.40;;;;;;4043536;29;20018;-56
2023/11/16 12:57:30;;;;;;;;;;;14.50;89.20;;;;;;4043707;29;19939;-55
2023/11/16 13:00:11;;;;;;;;;;;14.60;89.20;;;;;;4042346;29;19943;-55
2023/11/16 13:02:57;;;;;;;;;;;14.60;89.10;;;;;;4027999;29;19939;-54
2023/11/16 13:05:42;;;;;;;;;;;14.50;88.90;;;;;;4016392;29;19945;-53
2023/11/16 13:08:23;;;;;;;;;;;14.50;88.80;;;;;;4043100;29;19934;-53
2023/11/16 13:11:04;;;;;;;;;;;14.50;88.70;;;;;;4043755;29;19938;-54
2023/11/16 13:13:46;;;;;;;;;;;14.50;88.60;;;;;;4031121;29;20071;-56
2023/11/16 13:16:27;;;;;;;;;;;14.50;88.60;;;;;;4042454;29;19935;-56
2023/11/16 13:19:08;;;;;;;;;;;14.50;88.60;;;;;;4037694;29;19939;-54
2023/11/16 13:21:49;;;;;;;;;;;14.50;88.60;;;;;;4041096;29;20231;-55
2023/11/16 13:24:30;;;;;;;;;;;14.50;88.60;;;;;;4039389;29;20293;-54
2023/11/16 13:27:11;;;;;;;;;;;14.50;88.50;;;;;;4027879;29;19939;-53
2023/11/16 13:29:53;;;;;;;;;;;14.50;88.40;;;;;;4028040;29;19939;-56
2023/11/16 13:32:35;;;;;;;;;;;14.50;88.40;;;;;;4027911;29;20007;-55
2023/11/16 13:35:15;;;;;;;;;;;14.50;88.40;;;;;;4027667;29;19983;-55
2023/11/16 13:37:56;;;;;;;;;;;14.50;88.30;;;;;;4028528;29;19935;-55
2023/11/16 13:40:37;;;;;;;;;;;14.50;88.30;;;;;;4027146;29;19935;-56
2023/11/16 13:43:18;;;;;;;;;;;14.50;89.10;;;;;;4028494;29;19987;-56
2023/11/16 13:46:02;;;;;;;;;;;14.50;88.30;;;;;;4030623;29;19982;-55
2023/11/16 13:48:45;;;;;;;;;;;14.50;88.30;;;;;;4042587;29;20019;-54
2023/11/16 13:51:27;;;;;;;;;;;14.50;88.20;;;;;;4028091;29;19938;-56
2023/11/16 13:54:08;;;;;;;;;;;14.50;88.20;;;;;;4027351;29;19981;-54
2023/11/16 13:56:49;;;;;;;;;;;14.50;88.20;;;;;;4026292;29;19934;-55
2023/11/16 13:59:30;;;;;;;;;;;14.40;88.20;;;;;;4027087;29;20276;-54
2023/11/16 14:02:13;;;;;;;;;;;14.50;88.30;;;;;;4034184;29;19978;-56
2023/11/16 14:04:54;;;;;;;;;;;14.50;89.20;;;;;;4042452;29;19950;-55
2023/11/16 14:07:36;;;;;;;;;;;14.50;88.40;;;;;;4042761;29;19935;-54
2023/11/16 14:10:17;;;;;;;;;;;14.40;88.30;;;;;;4042521;29;19954;-55
2023/11/16 14:13:02;;;;;;;;;;;14.50;88.40;;;;;;4042853;29;20022;-53
2023/11/16 14:15:43;;;;;;;;;;;14.40;88.40;;;;;;4029209;29;19936;-54
2023/11/16 14:18:35;;;;;;;;;;;14.50;88.60;;;;;;4042643;29;23437;-55
2023/11/16 14:21:16;;;;;;;;;;;14.40;88.70;;;;;;4042431;29;20623;-55
2023/11/16 14:23:57;;;;;;;;;;;14.40;88.80;;;;;;4042744;29;19933;-54
2023/11/16 14:26:39;;;;;;;;;;;14.40;88.80;;;;;;4042601;29;20405;-56
2023/11/16 14:29:20;;;;;;;;;;;14.40;88.90;;;;;;4042211;29;19934;-55
2023/11/16 14:32:01;;;;;;;;;;;14.40;88.90;;;;;;4039927;29;20025;-56
2023/11/16 14:34:43;;;;;;;;;;;14.40;89.00;;;;;;4035910;29;19934;-53
2023/11/16 14:37:23;;;;;;;;;;;14.40;89.10;;;;;;4030903;29;19986;-54
2023/11/16 14:40:05;;;;;;;;;;;14.40;89.20;;;;;;4042101;29;19939;-55
2023/11/16 14:42:46;;;;;;;;;;;14.40;89.30;;;;;;4041803;29;20075;-55
2023/11/16 14:45:32;;;;;;;;;;;14.40;89.40;;;;;;4041650;29;20066;-54
2023/11/16 14:48:14;;;;;;;;;;;14.40;89.50;;;;;;4042142;29;20260;-56
2023/11/16 14:50:57;;;;;;;;;;;14.40;89.60;;;;;;4040596;29;19935;-57
2023/11/16 14:53:39;;;;;;;;;;;14.40;89.70;;;;;;4031320;29;20367;-56
2023/11/16 14:56:24;;;;;;;;;;;14.40;89.70;;;;;;4034912;29;20389;-55
2023/11/16 14:59:08;;;;;;;;;;;14.40;89.70;;;;;;4034013;29;20402;-54
2023/11/16 15:01:52;;;;;;;;;;;14.40;89.70;;;;;;4041478;29;19935;-55
2023/11/16 15:04:33;;;;;;;;;;;14.40;89.60;;;;;;4032667;29;19934;-55
2023/11/16 15:07:15;;;;;;;;;;;14.40;89.60;;;;;;4040547;29;20422;-55
2023/11/16 15:09:56;;;;;;;;;;;14.40;89.60;;;;;;4033986;29;19939;-50
2023/11/16 15:12:37;;;;;;;;;;;14.40;89.60;;;;;;4042439;29;19934;-55
2023/11/16 15:15:18;;;;;;;;;;;14.40;89.70;;;;;;4027699;29;20079;-51
2023/11/16 15:17:58;;;;;;;;;;;14.40;90.00;;;;;;4019114;29;20551;-52
2023/11/16 15:20:40;;;;;;;;;;;14.40;90.70;;;;;;4027371;29;19935;-52
2023/11/16 15:23:23;;;;;;;;;;;14.40;90.70;;;;;;4014409;29;19935;-54
2023/11/16 15:26:04;;;;;;;;;;;14.40;91.10;;;;;;4034084;29;19943;-55
2023/11/16 15:28:53;;;;;;;;;;;14.40;91.50;;;;;;4042533;29;20663;-54
2023/11/16 15:31:35;;;;;;;;;;;14.50;91.80;;;;;;4032348;29;20323;-53
2023/11/16 15:34:16;;;;;;;;;;;14.50;92.10;;;;;;4027173;29;20079;-53
2023/11/16 15:36:57;;;;;;;;;;;14.50;92.30;;;;;;4020063;29;19972;-54
2023/11/16 15:39:39;;;;;;;;;;;14.50;92.60;;;;;;4027323;29;19935;-53
2023/11/16 15:42:20;;;;;;;;;;;14.50;92.70;;;;;;4036179;29;19935;-54